createdAt,value
2023-02-11T00:01:32.900Z,73.55
2023-02-11T00:04:02.285Z,73.47
2023-02-11T00:06:31.362Z,73.37
2023-02-11T00:08:59.619Z,73.32
2023-02-11T00:11:30.463Z,73.30
2023-02-11T00:14:00.669Z,73.27
2023-02-11T00:16:29.626Z,73.25
2023-02-11T00:18:59.728Z,73.24
2023-02-11T00:21:27.908Z,73.22
2023-02-11T00:23:59.645Z,73.12
2023-02-11T00:26:33.136Z,73.05
2023-02-11T00:29:01.717Z,72.98
2023-02-11T00:31:32.760Z,72.87
2023-02-11T00:34:01.673Z,72.79
2023-02-11T00:36:30.293Z,72.62
2023-02-11T00:39:00.507Z,72.66
2023-02-11T00:41:29.673Z,72.62
2023-02-11T00:44:01.288Z,72.36
2023-02-11T00:46:29.209Z,72.27
2023-02-11T00:48:58.057Z,72.23
2023-02-11T00:51:27.218Z,72.24
2023-02-11T00:53:55.003Z,72.12
2023-02-11T00:56:24.129Z,71.97
2023-02-11T00:58:52.068Z,71.95
2023-02-11T01:01:20.402Z,71.86
2023-02-11T01:03:48.157Z,71.72
2023-02-11T01:06:16.538Z,71.57
2023-02-11T01:08:44.357Z,71.48
2023-02-11T01:11:15.896Z,71.41
2023-02-11T01:13:47.831Z,71.34
2023-02-11T01:16:18.625Z,71.24
2023-02-11T01:18:47.134Z,71.15
2023-02-11T01:21:15.037Z,71.11
2023-02-11T01:23:44.181Z,71.03
2023-02-11T01:26:13.128Z,70.99
2023-02-11T01:28:40.860Z,70.93
2023-02-11T01:31:08.686Z,70.90
2023-02-11T01:33:36.521Z,70.82
2023-02-11T01:36:06.813Z,70.74
2023-02-11T01:38:35.480Z,70.69
2023-02-11T01:41:07.052Z,70.62
2023-02-11T01:43:39.469Z,70.54
2023-02-11T01:46:14.127Z,70.51
2023-02-11T01:48:49.373Z,70.43
2023-02-11T01:51:24.591Z,70.42
2023-02-11T01:54:11.793Z,70.34
2023-02-11T01:57:04.157Z,70.28
2023-02-11T01:59:44.598Z,70.28
2023-02-11T02:02:15.188Z,70.24
2023-02-11T02:05:18.408Z,70.15
2023-02-11T02:07:54.217Z,70.07
2023-02-11T02:10:27.389Z,70.01
2023-02-11T02:12:55.901Z,69.98
2023-02-11T02:15:32.043Z,69.98
2023-02-11T02:18:02.828Z,69.95
2023-02-11T02:20:36.598Z,70.00
2023-02-11T02:23:10.931Z,69.94
2023-02-11T02:26:07.909Z,69.89
2023-02-11T02:29:00.504Z,69.95
2023-02-11T02:31:57.502Z,69.97
2023-02-11T02:34:53.862Z,69.99
2023-02-11T02:37:29.696Z,70.00
2023-02-11T02:40:01.985Z,70.02
2023-02-11T02:42:31.210Z,70.03
2023-02-11T02:44:59.182Z,69.98
2023-02-11T02:47:27.094Z,69.92
2023-02-11T02:49:54.905Z,69.93
2023-02-11T02:52:56.826Z,69.89
2023-02-11T02:55:27.567Z,69.81
2023-02-11T02:58:14.133Z,69.86
2023-02-11T03:01:00.242Z,69.80
2023-02-11T03:03:44.329Z,69.72
2023-02-11T03:06:24.093Z,69.62
2023-02-11T03:09:19.314Z,69.53
2023-02-11T03:11:47.105Z,69.39
2023-02-11T03:14:18.190Z,69.28
2023-02-11T03:16:48.457Z,69.16
2023-02-11T03:19:22.830Z,68.98
2023-02-11T03:21:52.997Z,69.00
2023-02-11T03:24:27.591Z,69.11
2023-02-11T03:27:09.465Z,69.14
2023-02-11T03:29:51.543Z,69.05
2023-02-11T03:32:28.169Z,68.92
2023-02-11T03:35:15.608Z,69.06
2023-02-11T03:37:57.600Z,69.06
2023-02-11T03:40:29.978Z,69.05
2023-02-11T03:43:06.656Z,69.12
2023-02-11T03:45:38.351Z,69.15
2023-02-11T03:48:32.527Z,69.07
2023-02-11T03:51:05.553Z,69.03
2023-02-11T03:53:34.300Z,68.90
2023-02-11T03:56:07.775Z,68.92
2023-02-11T03:58:35.478Z,68.84
2023-02-11T04:01:05.145Z,68.71
2023-02-11T04:03:33.155Z,68.63
2023-02-11T04:06:00.941Z,68.70
2023-02-11T04:08:28.828Z,68.64
2023-02-11T04:10:56.574Z,68.57
2023-02-11T04:13:26.124Z,68.55
2023-02-11T04:15:54.357Z,68.52
2023-02-11T04:18:22.326Z,68.46
2023-02-11T04:20:51.669Z,68.37
2023-02-11T04:23:19.518Z,68.34
2023-02-11T04:25:47.273Z,68.32
2023-02-11T04:28:15.079Z,68.39
2023-02-11T04:30:42.996Z,68.34
2023-02-11T04:33:10.865Z,68.49
2023-02-11T04:35:38.648Z,68.62
2023-02-11T04:38:06.516Z,68.33
2023-02-11T04:40:34.334Z,68.16
2023-02-11T04:43:02.034Z,68.10
2023-02-11T04:45:29.806Z,67.79
2023-02-11T04:47:57.636Z,67.46
2023-02-11T04:50:25.602Z,68.38
2023-02-11T04:52:53.946Z,68.31
2023-02-11T04:55:21.713Z,67.42
2023-02-11T04:57:49.447Z,66.71
2023-02-11T05:00:17.364Z,66.51
2023-02-11T05:02:45.111Z,66.41
2023-02-11T05:05:12.980Z,66.47
2023-02-11T05:07:41.167Z,67.16
2023-02-11T05:10:09.165Z,67.77
2023-02-11T05:12:36.905Z,68.34
2023-02-11T05:15:05.467Z,68.58
2023-02-11T05:17:33.301Z,68.73
2023-02-11T05:20:01.433Z,69.27
2023-02-11T05:22:29.288Z,69.34
2023-02-11T05:24:57.221Z,69.56
2023-02-11T05:27:24.972Z,69.46
2023-02-11T05:29:52.700Z,69.91
2023-02-11T05:32:20.460Z,69.70
2023-02-11T05:34:48.326Z,69.37
2023-02-11T05:37:16.460Z,69.21
2023-02-11T05:39:44.211Z,69.28
2023-02-11T05:42:11.945Z,69.57
2023-02-11T05:44:40.025Z,69.62
2023-02-11T05:47:08.997Z,69.61
2023-02-11T05:49:36.813Z,69.80
2023-02-11T05:52:04.617Z,69.94
2023-02-11T05:54:32.428Z,69.79
2023-02-11T05:57:00.213Z,70.31
2023-02-11T05:59:27.994Z,70.50
2023-02-11T06:01:55.767Z,70.52
2023-02-11T06:04:23.621Z,69.25
2023-02-11T06:06:51.377Z,68.56
2023-02-11T06:09:19.184Z,68.64
2023-02-11T06:11:46.920Z,67.92
2023-02-11T06:14:14.853Z,67.62
2023-02-11T06:16:42.626Z,67.79
2023-02-11T06:19:10.889Z,68.05
2023-02-11T06:21:44.086Z,68.35
2023-02-11T06:24:12.705Z,68.78
2023-02-11T06:26:40.473Z,69.10
2023-02-11T06:29:08.307Z,69.44
2023-02-11T06:31:37.682Z,69.50
2023-02-11T06:34:06.162Z,69.81
2023-02-11T06:36:34.247Z,70.01
2023-02-11T06:39:02.354Z,70.18
2023-02-11T06:41:30.107Z,70.19
2023-02-11T06:43:57.803Z,70.38
2023-02-11T06:46:25.835Z,70.48
2023-02-11T06:48:53.719Z,70.46
2023-02-11T06:51:21.556Z,70.62
2023-02-11T06:53:49.494Z,70.77
2023-02-11T06:56:19.941Z,70.96
2023-02-11T06:58:48.080Z,71.19
2023-02-11T07:01:17.062Z,71.11
2023-02-11T07:03:46.127Z,71.11
2023-02-11T07:06:19.957Z,71.29
2023-02-11T07:08:48.668Z,71.45
2023-02-11T07:11:19.231Z,71.54
2023-02-11T07:13:47.863Z,71.57
2023-02-11T07:16:16.988Z,71.47
2023-02-11T07:18:46.556Z,71.56
2023-02-11T07:21:17.110Z,71.52
2023-02-11T07:23:46.480Z,71.58
2023-02-11T07:26:17.763Z,71.75
2023-02-11T07:28:46.013Z,71.90
2023-02-11T07:31:23.624Z,71.85
2023-02-11T07:33:52.974Z,71.94
2023-02-11T07:36:21.778Z,72.01
2023-02-11T07:38:50.318Z,72.01
2023-02-11T07:41:21.260Z,72.05
2023-02-11T07:43:49.832Z,72.12
2023-02-11T07:46:26.734Z,72.20
2023-02-11T07:48:55.343Z,72.30
2023-02-11T07:51:25.452Z,72.40
2023-02-11T07:53:54.093Z,72.54
2023-02-11T07:56:22.567Z,72.66
2023-02-11T07:58:50.798Z,72.87
2023-02-11T08:01:22.548Z,73.10
2023-02-11T08:03:50.922Z,73.48
2023-02-11T08:06:20.432Z,73.80
2023-02-11T08:08:49.263Z,73.94
2023-02-11T08:11:20.647Z,74.38
2023-02-11T08:13:49.013Z,74.85
2023-02-11T08:16:23.048Z,75.52
2023-02-11T08:18:52.129Z,75.55
2023-02-11T08:21:20.914Z,75.98
2023-02-11T08:23:49.810Z,76.36
2023-02-11T08:26:20.838Z,76.90
2023-02-11T08:28:50.641Z,77.57
2023-02-11T08:31:21.744Z,78.09
2023-02-11T08:33:49.967Z,78.43
2023-02-11T08:36:30.088Z,78.65
2023-02-11T08:39:15.925Z,78.58
2023-02-11T08:41:46.891Z,79.12
2023-02-11T08:44:14.749Z,78.74
2023-02-11T08:46:42.520Z,79.41
2023-02-11T08:49:10.357Z,80.79
2023-02-11T08:51:38.092Z,80.75
2023-02-11T08:54:09.482Z,80.55
2023-02-11T08:56:38.522Z,81.26
2023-02-11T08:59:09.234Z,83.59
2023-02-11T09:01:37.173Z,81.21
2023-02-11T09:04:05.319Z,78.84
2023-02-11T09:06:33.078Z,79.00
2023-02-11T09:09:00.941Z,78.45
2023-02-11T09:11:33.058Z,77.94
2023-02-11T09:14:02.267Z,77.03
2023-02-11T09:16:32.709Z,77.15
2023-02-11T09:19:02.233Z,77.77
2023-02-11T09:21:30.752Z,79.28
2023-02-11T09:23:58.505Z,77.39
2023-02-11T09:26:29.000Z,76.14
2023-02-11T09:29:00.323Z,75.89
2023-02-11T09:31:30.395Z,76.05
2023-02-11T09:34:00.703Z,77.14
2023-02-11T09:36:34.477Z,76.84
2023-02-11T09:39:02.714Z,76.90
2023-02-11T09:41:59.149Z,76.17
2023-02-11T09:44:29.576Z,75.15
2023-02-11T09:47:03.113Z,74.42
2023-02-11T09:49:45.626Z,73.77
2023-02-11T09:52:26.760Z,73.66
2023-02-11T09:54:59.818Z,74.90
2023-02-11T09:57:33.507Z,74.47
2023-02-11T10:00:04.040Z,73.81
2023-02-11T10:03:00.900Z,74.00
2023-02-11T10:06:14.135Z,74.25
2023-02-11T10:08:48.584Z,74.34
2023-02-11T10:11:47.264Z,74.57
2023-02-11T10:14:33.980Z,75.01
2023-02-11T10:17:16.775Z,75.50
2023-02-11T10:20:02.632Z,76.08
2023-02-11T10:22:49.328Z,76.50
2023-02-11T10:25:35.787Z,77.27
2023-02-11T10:28:14.035Z,77.62
2023-02-11T10:31:01.823Z,78.07
2023-02-11T10:33:39.230Z,78.75
2023-02-11T10:36:07.361Z,78.64
2023-02-11T10:38:36.732Z,78.80
2023-02-11T10:41:05.114Z,79.14
2023-02-11T10:43:34.638Z,79.63
2023-02-11T10:46:05.795Z,79.93
2023-02-11T10:48:51.808Z,79.96
2023-02-11T10:51:26.869Z,80.10
2023-02-11T10:54:03.701Z,80.43
2023-02-11T10:56:59.444Z,80.98
2023-02-11T10:59:40.297Z,81.06
2023-02-11T11:02:32.021Z,81.23
2023-02-11T11:05:06.136Z,81.57
2023-02-11T11:07:34.797Z,81.85
2023-02-11T11:10:28.679Z,82.10
2023-02-11T11:12:56.432Z,82.20
2023-02-11T11:15:26.924Z,82.33
2023-02-11T11:18:22.137Z,82.57
2023-02-11T11:21:02.232Z,82.85
2023-02-11T11:23:31.199Z,82.92
2023-02-11T11:26:05.139Z,83.03
2023-02-11T11:28:40.036Z,83.30
2023-02-11T11:31:21.769Z,83.58
2023-02-11T11:33:52.783Z,83.50
2023-02-11T11:36:23.861Z,83.68
2023-02-11T11:38:58.746Z,83.82
2023-02-11T11:41:30.745Z,83.80
2023-02-11T11:43:59.936Z,83.92
2023-02-11T11:46:48.015Z,83.95
2023-02-11T11:49:37.719Z,84.09
2023-02-11T11:52:16.878Z,84.46
2023-02-11T11:54:51.773Z,84.53
2023-02-11T11:57:25.602Z,84.38
2023-02-11T11:59:53.456Z,84.27
2023-02-11T12:02:55.715Z,84.16
2023-02-11T12:05:36.180Z,84.27
2023-02-11T12:08:45.732Z,84.26
2023-02-11T12:11:34.925Z,84.09
2023-02-11T12:14:08.474Z,84.11
2023-02-11T12:17:03.871Z,84.23
2023-02-11T12:19:52.871Z,84.39
2023-02-11T12:22:23.387Z,84.52
2023-02-11T12:25:17.630Z,84.68
2023-02-11T12:28:04.639Z,84.84
2023-02-11T12:30:35.214Z,84.94
2023-02-11T12:33:31.777Z,85.21
2023-02-11T12:36:11.723Z,85.43
2023-02-11T12:38:54.536Z,86.30
2023-02-11T12:42:04.093Z,86.00
2023-02-11T12:44:50.094Z,85.75
2023-02-11T12:47:46.721Z,85.89
2023-02-11T12:50:42.741Z,85.77
2023-02-11T12:53:19.225Z,85.80
2023-02-11T12:55:51.501Z,85.93
2023-02-11T12:58:29.672Z,86.02
2023-02-11T13:01:16.875Z,86.05
2023-02-11T13:04:14.119Z,86.03
2023-02-11T13:06:51.097Z,86.07
2023-02-11T13:09:25.611Z,86.08
2023-02-11T13:12:20.687Z,86.17
2023-02-11T13:14:53.803Z,86.25
2023-02-11T13:17:29.435Z,86.28
2023-02-11T13:20:04.902Z,86.33
2023-02-11T13:22:44.304Z,86.37
2023-02-11T13:25:36.282Z,86.45
2023-02-11T13:28:19.836Z,86.50
2023-02-11T13:30:52.228Z,86.57
2023-02-11T13:33:32.886Z,86.63
2023-02-11T13:36:02.098Z,86.61
2023-02-11T13:38:32.790Z,86.56
2023-02-11T13:41:21.272Z,86.51
2023-02-11T13:44:26.731Z,86.64
2023-02-11T13:47:04.894Z,86.64
2023-02-11T13:49:42.148Z,86.60
2023-02-11T13:52:22.013Z,86.58
2023-02-11T13:54:52.760Z,86.60
2023-02-11T13:57:20.483Z,86.72
2023-02-11T14:00:37.871Z,87.01
2023-02-11T14:03:29.397Z,86.95
2023-02-11T14:06:26.960Z,86.96
2023-02-11T14:09:08.908Z,86.93
2023-02-11T14:11:47.626Z,86.97
2023-02-11T14:14:23.170Z,86.97
2023-02-11T14:17:01.698Z,87.00
2023-02-11T14:19:33.906Z,86.93
2023-02-11T14:22:09.219Z,87.30
2023-02-11T14:24:35.606Z,87.05
2023-02-11T14:27:04.679Z,86.75
2023-02-11T14:30:10.092Z,86.63
2023-02-11T14:33:10.354Z,86.54
2023-02-11T14:36:01.084Z,86.67
2023-02-11T14:39:01.411Z,86.68
2023-02-11T14:41:39.344Z,86.80
2023-02-11T14:44:14.861Z,86.97
2023-02-11T14:46:47.743Z,87.24
2023-02-11T14:49:36.072Z,87.25
2023-02-11T14:52:22.473Z,87.19
2023-02-11T14:54:50.513Z,87.02
2023-02-11T14:57:19.619Z,87.24
2023-02-11T15:00:15.600Z,87.30
2023-02-11T15:02:43.167Z,87.32
2023-02-11T15:05:29.140Z,87.51
2023-02-11T15:07:59.337Z,87.68
2023-02-11T15:10:41.253Z,87.74
2023-02-11T15:13:13.239Z,87.79
2023-02-11T15:15:40.235Z,87.84
2023-02-11T15:18:08.910Z,87.88
2023-02-11T15:20:36.428Z,87.98
2023-02-11T15:23:07.548Z,88.17
2023-02-11T15:25:41.635Z,88.34
2023-02-11T15:28:20.659Z,88.44
2023-02-11T15:30:47.177Z,88.51
2023-02-11T15:33:22.087Z,88.54
2023-02-11T15:35:48.530Z,88.58
2023-02-11T15:38:14.839Z,88.71
2023-02-11T15:40:53.281Z,88.73
2023-02-11T15:43:19.859Z,88.89
2023-02-11T15:46:01.090Z,88.92
2023-02-11T15:48:42.206Z,89.10
2023-02-11T15:51:21.237Z,89.00
2023-02-11T15:53:52.442Z,88.91
2023-02-11T15:56:36.856Z,89.02
2023-02-11T15:59:30.875Z,89.13
2023-02-11T16:02:04.823Z,89.41
2023-02-11T16:04:31.368Z,90.00
2023-02-11T16:06:57.793Z,88.14
2023-02-11T16:09:30.680Z,86.93
2023-02-11T16:11:59.873Z,85.04
2023-02-11T16:14:28.988Z,83.13
2023-02-11T16:17:21.661Z,82.26
2023-02-11T16:19:51.066Z,82.47
2023-02-11T16:22:25.772Z,83.18
2023-02-11T16:24:54.650Z,83.74
2023-02-11T16:27:24.994Z,84.07
2023-02-11T16:29:51.797Z,84.64
2023-02-11T16:32:23.066Z,84.28
2023-02-11T16:34:50.066Z,84.06
2023-02-11T16:37:18.186Z,84.28
2023-02-11T16:39:44.734Z,83.70
2023-02-11T16:42:12.313Z,83.00
2023-02-11T16:44:39.049Z,81.18
2023-02-11T16:47:13.404Z,80.95
2023-02-11T16:49:42.760Z,81.19
2023-02-11T16:52:13.875Z,81.66
2023-02-11T16:54:40.341Z,82.29
2023-02-11T16:57:21.607Z,83.00
2023-02-11T16:59:48.864Z,83.75
2023-02-11T17:02:23.955Z,84.14
2023-02-11T17:04:53.421Z,84.69
2023-02-11T17:07:20.099Z,85.36
2023-02-11T17:09:46.501Z,85.89
2023-02-11T17:12:12.909Z,86.44
2023-02-11T17:14:39.256Z,86.67
2023-02-11T17:17:05.653Z,86.87
2023-02-11T17:19:32.015Z,87.30
2023-02-11T17:21:58.666Z,87.44
2023-02-11T17:24:25.029Z,87.80
2023-02-11T17:26:51.468Z,87.99
2023-02-11T17:29:22.023Z,88.06
2023-02-11T17:31:51.132Z,88.30
2023-02-11T17:34:18.666Z,88.42
2023-02-11T17:36:45.069Z,88.46
2023-02-11T17:39:12.005Z,88.60
2023-02-11T17:41:39.162Z,88.76
2023-02-11T17:44:07.416Z,89.01
2023-02-11T17:46:35.381Z,89.27
2023-02-11T17:49:02.701Z,89.46
2023-02-11T17:51:32.393Z,89.47
2023-02-11T17:53:59.786Z,89.58
2023-02-11T17:56:26.504Z,89.65
2023-02-11T17:58:53.202Z,89.72
2023-02-11T18:01:20.667Z,89.76
2023-02-11T18:03:47.092Z,89.88
2023-02-11T18:06:13.763Z,89.97
2023-02-11T18:08:42.653Z,89.96
2023-02-11T18:11:11.079Z,90.08
2023-02-11T18:16:59.023Z,90.21
2023-02-11T18:19:30.539Z,90.28
2023-02-11T18:22:00.991Z,90.28
2023-02-11T18:24:29.096Z,90.29
2023-02-11T18:26:57.011Z,90.32
2023-02-11T18:29:25.313Z,90.35
2023-02-11T18:31:57.612Z,90.34
2023-02-11T18:34:26.715Z,90.38
2023-02-11T18:36:54.494Z,90.44
2023-02-11T18:39:24.437Z,90.47
2023-02-11T18:41:54.602Z,90.47
2023-02-11T18:44:24.915Z,90.49
2023-02-11T18:46:53.128Z,90.52
2023-02-11T18:49:21.175Z,90.52
2023-02-11T18:51:48.923Z,90.58
2023-02-11T18:54:16.979Z,90.57
2023-02-11T18:56:45.099Z,90.57
2023-02-11T18:59:13.072Z,90.61
2023-02-11T19:01:43.316Z,90.68
2023-02-11T19:04:11.516Z,90.72
2023-02-11T19:06:39.537Z,90.78
2023-02-11T19:09:10.384Z,90.84
2023-02-11T19:11:52.346Z,90.86
2023-02-11T19:14:25.957Z,90.85
2023-02-11T19:16:56.712Z,90.85
2023-02-11T19:19:29.750Z,90.93
2023-02-11T19:21:59.947Z,91.01
2023-02-11T19:24:28.881Z,91.07
2023-02-11T19:26:59.218Z,91.09
2023-02-11T19:29:28.455Z,91.08
2023-02-11T19:31:56.222Z,91.08
2023-02-11T19:34:24.190Z,91.06
2023-02-11T19:36:51.975Z,91.14
2023-02-11T19:39:20.709Z,91.16
2023-02-11T19:41:48.484Z,91.16
2023-02-11T19:44:16.701Z,91.12
2023-02-11T19:46:45.983Z,91.17
2023-02-11T19:49:17.571Z,91.32
2023-02-11T19:51:45.458Z,91.24
2023-02-11T19:54:13.652Z,91.04
2023-02-11T19:56:41.368Z,90.97
2023-02-11T19:59:09.800Z,91.00
2023-02-11T20:01:37.884Z,91.03
2023-02-11T20:04:06.347Z,91.07
2023-02-11T20:06:35.124Z,91.06
2023-02-11T20:09:10.058Z,91.11
2023-02-11T20:11:39.062Z,91.22
2023-02-11T20:14:07.668Z,91.28
2023-02-11T20:16:47.385Z,91.38
2023-02-11T20:19:21.924Z,91.40
2023-02-11T20:21:53.220Z,91.44
2023-02-11T20:24:21.856Z,91.43
2023-02-11T20:26:51.753Z,91.43
2023-02-11T20:29:19.538Z,91.42
2023-02-11T20:31:50.112Z,91.39
2023-02-11T20:34:18.826Z,91.35
2023-02-11T20:36:52.184Z,91.35
2023-02-11T20:39:24.865Z,91.28
2023-02-11T20:41:54.042Z,91.18
2023-02-11T20:44:22.584Z,91.11
2023-02-11T20:46:51.649Z,91.04
2023-02-11T20:49:22.381Z,90.97
2023-02-11T20:51:52.085Z,90.86
2023-02-11T20:54:20.288Z,90.75
2023-02-11T20:56:50.056Z,90.67
2023-02-11T20:59:19.168Z,90.55
2023-02-11T21:01:49.582Z,90.42
2023-02-11T21:04:20.896Z,90.31
2023-02-11T21:06:52.542Z,90.22
2023-02-11T21:09:23.726Z,90.13
2023-02-11T21:11:53.191Z,90.05
2023-02-11T21:14:22.888Z,89.97
2023-02-11T21:16:51.100Z,89.92
2023-02-11T21:19:18.947Z,89.88
2023-02-11T21:21:47.223Z,89.85
2023-02-11T21:24:15.502Z,89.83
2023-02-11T21:26:43.456Z,89.85
2023-02-11T21:29:11.885Z,89.82
2023-02-11T21:31:40.516Z,89.78
2023-02-11T21:34:08.480Z,89.72
2023-02-11T21:36:38.520Z,89.68
2023-02-11T21:39:06.544Z,89.64
2023-02-11T21:41:35.088Z,89.60
2023-02-11T21:44:03.121Z,89.59
2023-02-11T21:46:31.073Z,89.59
2023-02-11T21:49:00.306Z,89.57
2023-02-11T21:51:28.112Z,89.56
2023-02-11T21:53:58.695Z,89.54
2023-02-11T21:56:28.177Z,89.42
2023-02-11T21:58:57.850Z,89.22
2023-02-11T22:01:28.256Z,88.88
2023-02-11T22:03:57.241Z,88.35
2023-02-11T22:06:30.638Z,87.92
2023-02-11T22:09:00.543Z,87.34
2023-02-11T22:11:28.375Z,87.05
2023-02-11T22:13:57.856Z,86.91
2023-02-11T22:16:27.434Z,86.26
2023-02-11T22:18:58.726Z,84.70
2023-02-11T22:21:27.071Z,84.24
2023-02-11T22:23:55.896Z,84.15
2023-02-11T22:26:25.696Z,83.76
2023-02-11T22:28:54.997Z,83.50
2023-02-11T22:31:34.647Z,83.30
2023-02-11T22:34:04.151Z,83.33
2023-02-11T22:36:34.953Z,83.40
2023-02-11T22:39:08.395Z,83.47
2023-02-11T22:41:38.381Z,83.10
2023-02-11T22:44:06.433Z,82.79
2023-02-11T22:46:34.892Z,82.52
2023-02-11T22:49:04.111Z,82.23
2023-02-11T22:51:32.445Z,81.95
2023-02-11T22:54:03.225Z,81.98
2023-02-11T22:56:32.544Z,81.92
2023-02-11T22:59:02.208Z,81.37
2023-02-11T23:01:30.813Z,80.86
2023-02-11T23:04:03.353Z,80.78
2023-02-11T23:06:32.119Z,80.84
2023-02-11T23:09:00.743Z,80.64
2023-02-11T23:11:31.034Z,80.03
2023-02-11T23:14:00.609Z,79.54
2023-02-11T23:16:34.081Z,79.32
2023-02-11T23:19:04.696Z,79.00
2023-02-11T23:21:35.385Z,78.62
2023-02-11T23:24:07.611Z,78.48
2023-02-11T23:26:38.572Z,78.60
2023-02-11T23:29:07.164Z,78.65
2023-02-11T23:31:39.920Z,78.68
2023-02-11T23:34:08.903Z,78.59
2023-02-11T23:36:37.188Z,78.48
2023-02-11T23:39:05.119Z,78.20
2023-02-11T23:41:32.822Z,78.12
2023-02-11T23:44:00.710Z,78.08
2023-02-11T23:46:28.564Z,78.32
2023-02-11T23:48:56.420Z,78.65
2023-02-11T23:51:24.372Z,78.71
2023-02-11T23:53:52.738Z,78.64
2023-02-11T23:56:24.144Z,78.42
2023-02-11T23:58:55.639Z,77.70
